sensor_id;sensor_type;location;lat;lon;timestamp;temperature;humidity
8178;DHT22;4130;48.740;9.132;2023-04-24T00:00:48;9.40;99.90
8178;DHT22;4130;48.740;9.132;2023-04-24T00:03:16;9.50;99.90
8178;DHT22;4130;48.740;9.132;2023-04-24T00:05:46;9.50;99.90
8178;DHT22;4130;48.740;9.132;2023-04-24T00:08:14;9.50;99.90
8178;DHT22;4130;48.740;9.132;2023-04-24T00:10:41;9.50;99.90
8178;DHT22;4130;48.740;9.132;2023-04-24T00:13:08;9.50;99.90
8178;DHT22;4130;48.740;9.132;2023-04-24T00:15:34;9.50;99.90
8178;DHT22;4130;48.740;9.132;2023-04-24T00:18:01;9.50;99.90
8178;DHT22;4130;48.740;9.132;2023-04-24T00:20:29;9.50;99.90
8178;DHT22;4130;48.740;9.132;2023-04-24T00:22:57;9.60;99.90
8178;DHT22;4130;48.740;9.132;2023-04-24T00:25:25;9.60;99.90
8178;DHT22;4130;48.740;9.132;2023-04-24T00:27:52;9.60;99.90
8178;DHT22;4130;48.740;9.132;2023-04-24T00:30:19;9.60;99.90
8178;DHT22;4130;48.740;9.132;2023-04-24T00:32:46;9.70;99.90
8178;DHT22;4130;48.740;9.132;2023-04-24T00:35:13;9.70;99.90
8178;DHT22;4130;48.740;9.132;2023-04-24T00:37:40;9.70;99.90
8178;DHT22;4130;48.740;9.132;2023-04-24T00:40:08;9.70;99.90
8178;DHT22;4130;48.740;9.132;2023-04-24T00:42:36;9.70;99.90
8178;DHT22;4130;48.740;9.132;2023-04-24T00:45:06;9.70;99.90
8178;DHT22;4130;48.740;9.132;2023-04-24T00:47:33;9.80;99.90
8178;DHT22;4130;48.740;9.132;2023-04-24T00:50:01;9.80;99.90
8178;DHT22;4130;48.740;9.132;2023-04-24T00:52:28;9.80;99.90
8178;DHT22;4130;48.740;9.132;2023-04-24T00:54:56;9.80;99.90
8178;DHT22;4130;48.740;9.132;2023-04-24T00:57:23;9.90;99.90
8178;DHT22;4130;48.740;9.132;2023-04-24T00:59:52;9.90;99.90
8178;DHT22;4130;48.740;9.132;2023-04-24T01:02:21;9.90;99.90
8178;DHT22;4130;48.740;9.132;2023-04-24T01:04:49;10.00;99.90
8178;DHT22;4130;48.740;9.132;2023-04-24T01:07:18;9.90;99.90
8178;DHT22;4130;48.740;9.132;2023-04-24T01:09:47;9.90;99.90
8178;DHT22;4130;48.740;9.132;2023-04-24T01:12:16;9.80;99.90
8178;DHT22;4130;48.740;9.132;2023-04-24T01:14:43;9.90;99.90
8178;DHT22;4130;48.740;9.132;2023-04-24T01:17:11;9.90;99.90
8178;DHT22;4130;48.740;9.132;2023-04-24T01:19:38;9.90;99.90
8178;DHT22;4130;48.740;9.132;2023-04-24T01:22:10;9.90;99.90
8178;DHT22;4130;48.740;9.132;2023-04-24T01:24:37;9.90;99.90
8178;DHT22;4130;48.740;9.132;2023-04-24T01:27:05;9.90;99.90
8178;DHT22;4130;48.740;9.132;2023-04-24T01:29:32;9.80;99.90
8178;DHT22;4130;48.740;9.132;2023-04-24T01:31:58;9.90;99.90
8178;DHT22;4130;48.740;9.132;2023-04-24T01:34:25;9.80;99.90
8178;DHT22;4130;48.740;9.132;2023-04-24T01:36:53;9.70;99.90
8178;DHT22;4130;48.740;9.132;2023-04-24T01:39:22;9.60;99.90
8178;DHT22;4130;48.740;9.132;2023-04-24T01:41:51;9.50;99.90
8178;DHT22;4130;48.740;9.132;2023-04-24T01:44:18;9.50;99.90
8178;DHT22;4130;48.740;9.132;2023-04-24T01:46:44;9.50;99.90
8178;DHT22;4130;48.740;9.132;2023-04-24T01:49:11;9.60;99.90
8178;DHT22;4130;48.740;9.132;2023-04-24T01:51:38;9.50;99.90
8178;DHT22;4130;48.740;9.132;2023-04-24T01:54:05;9.50;99.90
8178;DHT22;4130;48.740;9.132;2023-04-24T01:56:34;9.40;99.90
8178;DHT22;4130;48.740;9.132;2023-04-24T01:59:02;9.30;99.90
8178;DHT22;4130;48.740;9.132;2023-04-24T02:01:34;9.30;99.90
8178;DHT22;4130;48.740;9.132;2023-04-24T02:04:02;9.30;99.90
8178;DHT22;4130;48.740;9.132;2023-04-24T02:06:29;9.30;99.90
8178;DHT22;4130;48.740;9.132;2023-04-24T02:08:56;9.20;99.90
8178;DHT22;4130;48.740;9.132;2023-04-24T02:11:23;9.30;99.90
8178;DHT22;4130;48.740;9.132;2023-04-24T02:13:51;9.30;99.90
8178;DHT22;4130;48.740;9.132;2023-04-24T02:16:18;9.30;99.90
8178;DHT22;4130;48.740;9.132;2023-04-24T02:18:45;9.30;99.90
8178;DHT22;4130;48.740;9.132;2023-04-24T02:21:11;9.20;99.90
8178;DHT22;4130;48.740;9.132;2023-04-24T02:23:38;9.30;99.90
8178;DHT22;4130;48.740;9.132;2023-04-24T02:26:05;9.20;99.90
8178;DHT22;4130;48.740;9.132;2023-04-24T02:28:32;9.20;99.90
8178;DHT22;4130;48.740;9.132;2023-04-24T02:31:00;9.20;99.90
8178;DHT22;4130;48.740;9.132;2023-04-24T02:33:27;9.10;99.90
8178;DHT22;4130;48.740;9.132;2023-04-24T02:35:54;9.10;99.90
8178;DHT22;4130;48.740;9.132;2023-04-24T02:38:20;9.10;99.90
8178;DHT22;4130;48.740;9.132;2023-04-24T02:40:47;9.10;99.90
8178;DHT22;4130;48.740;9.132;2023-04-24T02:43:14;9.20;99.90
8178;DHT22;4130;48.740;9.132;2023-04-24T02:45:40;9.20;99.90
8178;DHT22;4130;48.740;9.132;2023-04-24T02:48:08;9.20;99.90
8178;DHT22;4130;48.740;9.132;2023-04-24T02:50:35;9.20;99.90
8178;DHT22;4130;48.740;9.132;2023-04-24T02:53:02;9.20;99.90
8178;DHT22;4130;48.740;9.132;2023-04-24T02:55:29;9.20;99.90
8178;DHT22;4130;48.740;9.132;2023-04-24T02:57:56;9.20;99.90
8178;DHT22;4130;48.740;9.132;2023-04-24T03:00:23;9.10;99.90
8178;DHT22;4130;48.740;9.132;2023-04-24T03:02:49;9.10;99.90
8178;DHT22;4130;48.740;9.132;2023-04-24T03:05:17;9.10;99.90
8178;DHT22;4130;48.740;9.132;2023-04-24T03:07:44;9.10;99.90
8178;DHT22;4130;48.740;9.132;2023-04-24T03:10:11;9.10;99.90
8178;DHT22;4130;48.740;9.132;2023-04-24T03:12:38;9.10;99.90
8178;DHT22;4130;48.740;9.132;2023-04-24T03:15:06;9.10;99.90
8178;DHT22;4130;48.740;9.132;2023-04-24T03:17:33;9.00;99.90
8178;DHT22;4130;48.740;9.132;2023-04-24T03:20:00;8.90;99.90
8178;DHT22;4130;48.740;9.132;2023-04-24T03:22:28;8.90;99.90
8178;DHT22;4130;48.740;9.132;2023-04-24T03:24:55;8.70;99.90
8178;DHT22;4130;48.740;9.132;2023-04-24T03:27:22;8.70;99.90
8178;DHT22;4130;48.740;9.132;2023-04-24T03:29:49;8.60;99.90
8178;DHT22;4130;48.740;9.132;2023-04-24T03:32:19;8.60;99.90
8178;DHT22;4130;48.740;9.132;2023-04-24T03:34:45;8.60;99.90
8178;DHT22;4130;48.740;9.132;2023-04-24T03:37:12;8.60;99.90
8178;DHT22;4130;48.740;9.132;2023-04-24T03:39:40;8.70;99.90
8178;DHT22;4130;48.740;9.132;2023-04-24T03:42:07;8.70;99.90
8178;DHT22;4130;48.740;9.132;2023-04-24T03:44:34;8.70;99.90
8178;DHT22;4130;48.740;9.132;2023-04-24T03:47:01;8.70;99.90
8178;DHT22;4130;48.740;9.132;2023-04-24T03:49:28;8.70;99.90
8178;DHT22;4130;48.740;9.132;2023-04-24T03:51:54;8.60;99.90
8178;DHT22;4130;48.740;9.132;2023-04-24T03:54:21;8.50;99.90
8178;DHT22;4130;48.740;9.132;2023-04-24T03:56:49;8.40;99.90
8178;DHT22;4130;48.740;9.132;2023-04-24T03:59:16;8.40;99.90
8178;DHT22;4130;48.740;9.132;2023-04-24T04:01:43;8.30;99.90
8178;DHT22;4130;48.740;9.132;2023-04-24T04:04:10;8.30;99.90
8178;DHT22;4130;48.740;9.132;2023-04-24T04:06:37;8.20;99.90
8178;DHT22;4130;48.740;9.132;2023-04-24T04:09:04;8.20;99.90
8178;DHT22;4130;48.740;9.132;2023-04-24T04:11:31;8.20;99.90
8178;DHT22;4130;48.740;9.132;2023-04-24T04:13:59;8.40;99.90
8178;DHT22;4130;48.740;9.132;2023-04-24T04:16:25;8.50;99.90
8178;DHT22;4130;48.740;9.132;2023-04-24T04:18:52;8.60;99.90
8178;DHT22;4130;48.740;9.132;2023-04-24T04:21:19;8.70;99.90
8178;DHT22;4130;48.740;9.132;2023-04-24T04:23:46;8.70;99.90
8178;DHT22;4130;48.740;9.132;2023-04-24T04:26:13;8.80;99.90
8178;DHT22;4130;48.740;9.132;2023-04-24T04:28:40;8.90;99.90
8178;DHT22;4130;48.740;9.132;2023-04-24T04:31:08;8.90;99.90
8178;DHT22;4130;48.740;9.132;2023-04-24T04:33:35;8.90;99.90
8178;DHT22;4130;48.740;9.132;2023-04-24T04:36:03;8.90;99.90
8178;DHT22;4130;48.740;9.132;2023-04-24T04:38:30;8.80;99.90
8178;DHT22;4130;48.740;9.132;2023-04-24T04:40:57;8.70;99.90
8178;DHT22;4130;48.740;9.132;2023-04-24T04:43:24;8.60;99.90
8178;DHT22;4130;48.740;9.132;2023-04-24T04:45:52;8.50;99.90
8178;DHT22;4130;48.740;9.132;2023-04-24T04:48:21;8.40;99.90
8178;DHT22;4130;48.740;9.132;2023-04-24T04:50:48;8.30;99.90
8178;DHT22;4130;48.740;9.132;2023-04-24T04:53:15;8.20;99.90
8178;DHT22;4130;48.740;9.132;2023-04-24T04:55:41;8.20;99.90
8178;DHT22;4130;48.740;9.132;2023-04-24T04:58:08;8.10;99.90
8178;DHT22;4130;48.740;9.132;2023-04-24T05:00:35;8.10;99.90
8178;DHT22;4130;48.740;9.132;2023-04-24T05:03:03;8.10;99.90
8178;DHT22;4130;48.740;9.132;2023-04-24T05:05:31;8.10;99.90
8178;DHT22;4130;48.740;9.132;2023-04-24T05:07:58;8.00;99.90
8178;DHT22;4130;48.740;9.132;2023-04-24T05:10:25;8.00;99.90
8178;DHT22;4130;48.740;9.132;2023-04-24T05:12:52;8.00;99.90
8178;DHT22;4130;48.740;9.132;2023-04-24T05:15:18;8.00;99.90
8178;DHT22;4130;48.740;9.132;2023-04-24T05:17:45;8.00;99.90
8178;DHT22;4130;48.740;9.132;2023-04-24T05:20:12;8.00;99.90
8178;DHT22;4130;48.740;9.132;2023-04-24T05:22:41;8.10;99.90
8178;DHT22;4130;48.740;9.132;2023-04-24T05:25:08;8.10;99.90
8178;DHT22;4130;48.740;9.132;2023-04-24T05:27:35;8.10;99.90
8178;DHT22;4130;48.740;9.132;2023-04-24T05:30:02;8.10;99.90
8178;DHT22;4130;48.740;9.132;2023-04-24T05:32:30;8.10;99.90
8178;DHT22;4130;48.740;9.132;2023-04-24T05:34:56;8.10;99.90
8178;DHT22;4130;48.740;9.132;2023-04-24T05:37:23;8.20;99.90
8178;DHT22;4130;48.740;9.132;2023-04-24T05:39:51;8.20;99.90
8178;DHT22;4130;48.740;9.132;2023-04-24T05:42:18;8.20;99.90
8178;DHT22;4130;48.740;9.132;2023-04-24T05:44:45;8.20;99.90
8178;DHT22;4130;48.740;9.132;2023-04-24T05:47:12;8.30;99.90
8178;DHT22;4130;48.740;9.132;2023-04-24T05:49:38;8.40;99.90
8178;DHT22;4130;48.740;9.132;2023-04-24T05:52:05;8.40;99.90
8178;DHT22;4130;48.740;9.132;2023-04-24T05:54:34;8.50;99.90
8178;DHT22;4130;48.740;9.132;2023-04-24T05:57:02;8.50;99.90
8178;DHT22;4130;48.740;9.132;2023-04-24T05:59:33;8.40;99.90
8178;DHT22;4130;48.740;9.132;2023-04-24T06:01:59;8.40;99.90
8178;DHT22;4130;48.740;9.132;2023-04-24T06:04:26;8.40;99.90
8178;DHT22;4130;48.740;9.132;2023-04-24T06:06:53;8.30;99.90
8178;DHT22;4130;48.740;9.132;2023-04-24T06:09:21;8.20;99.90
8178;DHT22;4130;48.740;9.132;2023-04-24T06:11:49;8.20;99.90
8178;DHT22;4130;48.740;9.132;2023-04-24T06:14:19;8.10;99.90
8178;DHT22;4130;48.740;9.132;2023-04-24T06:16:46;8.10;99.90
8178;DHT22;4130;48.740;9.132;2023-04-24T06:19:13;8.00;99.90
8178;DHT22;4130;48.740;9.132;2023-04-24T06:21:40;8.00;99.90
8178;DHT22;4130;48.740;9.132;2023-04-24T06:24:06;8.00;99.90
8178;DHT22;4130;48.740;9.132;2023-04-24T06:26:33;8.10;99.90
8178;DHT22;4130;48.740;9.132;2023-04-24T06:29:00;8.10;99.90
8178;DHT22;4130;48.740;9.132;2023-04-24T06:31:28;8.20;99.90
8178;DHT22;4130;48.740;9.132;2023-04-24T06:33:55;8.30;99.90
8178;DHT22;4130;48.740;9.132;2023-04-24T06:36:21;8.50;99.90
8178;DHT22;4130;48.740;9.132;2023-04-24T06:38:48;8.70;99.90
8178;DHT22;4130;48.740;9.132;2023-04-24T06:41:15;8.90;99.90
8178;DHT22;4130;48.740;9.132;2023-04-24T06:43:42;9.10;99.90
8178;DHT22;4130;48.740;9.132;2023-04-24T06:46:10;9.30;99.90
8178;DHT22;4130;48.740;9.132;2023-04-24T06:48:39;9.50;99.90
8178;DHT22;4130;48.740;9.132;2023-04-24T06:51:05;9.70;99.90
8178;DHT22;4130;48.740;9.132;2023-04-24T06:53:32;9.80;99.90
8178;DHT22;4130;48.740;9.132;2023-04-24T06:55:59;10.10;99.90
8178;DHT22;4130;48.740;9.132;2023-04-24T06:58:26;10.40;99.90
8178;DHT22;4130;48.740;9.132;2023-04-24T07:00:53;10.80;99.90
8178;DHT22;4130;48.740;9.132;2023-04-24T07:03:19;11.20;99.90
8178;DHT22;4130;48.740;9.132;2023-04-24T07:05:48;11.50;99.90
8178;DHT22;4130;48.740;9.132;2023-04-24T07:08:15;11.60;99.90
8178;DHT22;4130;48.740;9.132;2023-04-24T07:10:43;11.80;99.90
8178;DHT22;4130;48.740;9.132;2023-04-24T07:13:10;11.80;99.90
8178;DHT22;4130;48.740;9.132;2023-04-24T07:15:37;11.80;99.90
8178;DHT22;4130;48.740;9.132;2023-04-24T07:18:04;11.50;99.90
8178;DHT22;4130;48.740;9.132;2023-04-24T07:20:31;11.10;99.90
8178;DHT22;4130;48.740;9.132;2023-04-24T07:22:59;10.80;99.90
8178;DHT22;4130;48.740;9.132;2023-04-24T07:25:26;10.40;99.90
8178;DHT22;4130;48.740;9.132;2023-04-24T07:27:53;10.30;99.90
8178;DHT22;4130;48.740;9.132;2023-04-24T07:30:20;10.20;99.90
8178;DHT22;4130;48.740;9.132;2023-04-24T07:32:46;10.30;99.90
8178;DHT22;4130;48.740;9.132;2023-04-24T07:35:13;10.40;99.90
8178;DHT22;4130;48.740;9.132;2023-04-24T07:37:40;10.50;99.90
8178;DHT22;4130;48.740;9.132;2023-04-24T07:40:12;10.60;99.90
8178;DHT22;4130;48.740;9.132;2023-04-24T07:42:39;10.80;99.90
8178;DHT22;4130;48.740;9.132;2023-04-24T07:45:07;11.10;99.90
8178;DHT22;4130;48.740;9.132;2023-04-24T07:47:34;11.40;99.90
8178;DHT22;4130;48.740;9.132;2023-04-24T07:50:02;11.60;99.90
8178;DHT22;4130;48.740;9.132;2023-04-24T07:52:28;11.50;99.90
8178;DHT22;4130;48.740;9.132;2023-04-24T07:54:55;11.30;99.90
8178;DHT22;4130;48.740;9.132;2023-04-24T07:57:27;11.20;99.90
8178;DHT22;4130;48.740;9.132;2023-04-24T07:59:54;11.10;99.90
8178;DHT22;4130;48.740;9.132;2023-04-24T08:02:20;11.20;99.90
8178;DHT22;4130;48.740;9.132;2023-04-24T08:04:51;11.30;99.90
8178;DHT22;4130;48.740;9.132;2023-04-24T08:07:18;11.20;99.90
8178;DHT22;4130;48.740;9.132;2023-04-24T08:09:45;11.00;99.90
8178;DHT22;4130;48.740;9.132;2023-04-24T08:12:11;10.80;99.90
8178;DHT22;4130;48.740;9.132;2023-04-24T08:14:40;10.80;99.90
8178;DHT22;4130;48.740;9.132;2023-04-24T08:17:06;10.70;99.90
8178;DHT22;4130;48.740;9.132;2023-04-24T08:19:33;10.70;99.90
8178;DHT22;4130;48.740;9.132;2023-04-24T08:22:00;10.60;99.90
8178;DHT22;4130;48.740;9.132;2023-04-24T08:24:27;10.70;99.90
8178;DHT22;4130;48.740;9.132;2023-04-24T08:26:53;10.70;99.90
8178;DHT22;4130;48.740;9.132;2023-04-24T08:29:22;10.90;99.90
8178;DHT22;4130;48.740;9.132;2023-04-24T08:31:50;11.10;99.90
8178;DHT22;4130;48.740;9.132;2023-04-24T08:34:17;11.40;99.90
8178;DHT22;4130;48.740;9.132;2023-04-24T08:36:43;11.80;99.90
8178;DHT22;4130;48.740;9.132;2023-04-24T08:39:10;12.10;99.90
8178;DHT22;4130;48.740;9.132;2023-04-24T08:41:37;12.30;99.90
8178;DHT22;4130;48.740;9.132;2023-04-24T08:44:04;12.50;99.90
8178;DHT22;4130;48.740;9.132;2023-04-24T08:46:32;12.70;99.90
8178;DHT22;4130;48.740;9.132;2023-04-24T08:49:01;12.80;99.90
8178;DHT22;4130;48.740;9.132;2023-04-24T08:51:28;12.80;99.90
8178;DHT22;4130;48.740;9.132;2023-04-24T08:53:56;13.00;99.90
8178;DHT22;4130;48.740;9.132;2023-04-24T08:56:23;13.50;99.90
8178;DHT22;4130;48.740;9.132;2023-04-24T08:58:53;13.30;99.90
8178;DHT22;4130;48.740;9.132;2023-04-24T09:01:20;13.10;99.90
8178;DHT22;4130;48.740;9.132;2023-04-24T09:03:48;12.80;99.90
8178;DHT22;4130;48.740;9.132;2023-04-24T09:06:17;12.80;99.90
8178;DHT22;4130;48.740;9.132;2023-04-24T09:08:45;13.00;99.90
8178;DHT22;4130;48.740;9.132;2023-04-24T09:11:15;12.90;99.90
8178;DHT22;4130;48.740;9.132;2023-04-24T09:13:43;13.00;99.90
8178;DHT22;4130;48.740;9.132;2023-04-24T09:16:10;13.00;99.90
8178;DHT22;4130;48.740;9.132;2023-04-24T09:18:36;12.70;99.90
8178;DHT22;4130;48.740;9.132;2023-04-24T09:21:07;12.30;99.90
8178;DHT22;4130;48.740;9.132;2023-04-24T09:23:35;12.30;99.90
8178;DHT22;4130;48.740;9.132;2023-04-24T09:26:04;12.30;99.90
8178;DHT22;4130;48.740;9.132;2023-04-24T09:28:32;12.10;99.90
8178;DHT22;4130;48.740;9.132;2023-04-24T09:31:06;12.10;99.90
8178;DHT22;4130;48.740;9.132;2023-04-24T09:33:33;12.60;99.90
8178;DHT22;4130;48.740;9.132;2023-04-24T09:36:00;13.20;99.90
8178;DHT22;4130;48.740;9.132;2023-04-24T09:38:35;13.50;99.90
8178;DHT22;4130;48.740;9.132;2023-04-24T09:41:04;13.90;99.90
8178;DHT22;4130;48.740;9.132;2023-04-24T09:43:31;14.10;99.90
8178;DHT22;4130;48.740;9.132;2023-04-24T09:45:59;14.30;99.90
8178;DHT22;4130;48.740;9.132;2023-04-24T09:48:33;14.20;99.90
8178;DHT22;4130;48.740;9.132;2023-04-24T09:51:01;13.70;99.90
8178;DHT22;4130;48.740;9.132;2023-04-24T09:53:29;13.20;99.90
8178;DHT22;4130;48.740;9.132;2023-04-24T09:56:02;12.70;99.90
8178;DHT22;4130;48.740;9.132;2023-04-24T09:58:29;12.80;99.90
8178;DHT22;4130;48.740;9.132;2023-04-24T10:00:56;11.80;99.90
8178;DHT22;4130;48.740;9.132;2023-04-24T10:03:25;11.70;99.80
8178;DHT22;4130;48.740;9.132;2023-04-24T10:05:58;11.80;99.90
8178;DHT22;4130;48.740;9.132;2023-04-24T10:08:25;11.90;99.90
8178;DHT22;4130;48.740;9.132;2023-04-24T10:10:52;12.50;99.90
8178;DHT22;4130;48.740;9.132;2023-04-24T10:13:20;13.00;99.50
8178;DHT22;4130;48.740;9.132;2023-04-24T10:15:48;13.20;99.50
8178;DHT22;4130;48.740;9.132;2023-04-24T10:18:15;13.50;98.90
8178;DHT22;4130;48.740;9.132;2023-04-24T10:20:42;13.90;98.90
8178;DHT22;4130;48.740;9.132;2023-04-24T10:23:09;14.00;98.10
8178;DHT22;4130;48.740;9.132;2023-04-24T10:25:37;14.10;97.80
8178;DHT22;4130;48.740;9.132;2023-04-24T10:28:04;14.50;98.20
8178;DHT22;4130;48.740;9.132;2023-04-24T10:30:34;14.80;96.30
8178;DHT22;4130;48.740;9.132;2023-04-24T10:33:02;14.90;96.40
8178;DHT22;4130;48.740;9.132;2023-04-24T10:35:31;15.40;96.70
8178;DHT22;4130;48.740;9.132;2023-04-24T10:38:01;15.00;96.80
8178;DHT22;4130;48.740;9.132;2023-04-24T10:40:31;14.80;96.30
8178;DHT22;4130;48.740;9.132;2023-04-24T10:42:59;14.60;96.20
8178;DHT22;4130;48.740;9.132;2023-04-24T10:45:28;14.10;95.90
8178;DHT22;4130;48.740;9.132;2023-04-24T10:48:01;13.50;96.20
8178;DHT22;4130;48.740;9.132;2023-04-24T10:50:29;13.00;96.50
8178;DHT22;4130;48.740;9.132;2023-04-24T10:53:06;12.70;97.30
8178;DHT22;4130;48.740;9.132;2023-04-24T10:55:41;12.40;97.00
8178;DHT22;4130;48.740;9.132;2023-04-24T10:58:08;12.20;97.20
8178;DHT22;4130;48.740;9.132;2023-04-24T11:00:37;12.10;97.00
8178;DHT22;4130;48.740;9.132;2023-04-24T11:03:06;12.00;97.10
8178;DHT22;4130;48.740;9.132;2023-04-24T11:05:58;11.80;96.90
8178;DHT22;4130;48.740;9.132;2023-04-24T11:08:28;11.50;97.30
8178;DHT22;4130;48.740;9.132;2023-04-24T11:10:57;11.40;98.00
8178;DHT22;4130;48.740;9.132;2023-04-24T11:13:25;11.30;97.90
8178;DHT22;4130;48.740;9.132;2023-04-24T11:16:14;11.20;97.70
8178;DHT22;4130;48.740;9.132;2023-04-24T11:18:43;11.10;98.40
8178;DHT22;4130;48.740;9.132;2023-04-24T11:21:17;11.20;98.30
8178;DHT22;4130;48.740;9.132;2023-04-24T11:23:44;11.30;98.60
8178;DHT22;4130;48.740;9.132;2023-04-24T11:26:12;11.60;98.60
8178;DHT22;4130;48.740;9.132;2023-04-24T11:28:45;12.10;98.60
8178;DHT22;4130;48.740;9.132;2023-04-24T11:31:34;12.80;98.20
8178;DHT22;4130;48.740;9.132;2023-04-24T11:34:07;13.50;97.30
8178;DHT22;4130;48.740;9.132;2023-04-24T11:36:35;13.50;96.20
8178;DHT22;4130;48.740;9.132;2023-04-24T11:39:02;13.50;96.50
8178;DHT22;4130;48.740;9.132;2023-04-24T11:41:28;13.50;97.20
8178;DHT22;4130;48.740;9.132;2023-04-24T11:43:56;13.00;95.90
8178;DHT22;4130;48.740;9.132;2023-04-24T11:46:26;12.80;96.80
8178;DHT22;4130;48.740;9.132;2023-04-24T11:48:53;12.40;96.90
8178;DHT22;4130;48.740;9.132;2023-04-24T11:51:22;12.20;97.80
8178;DHT22;4130;48.740;9.132;2023-04-24T11:53:49;12.20;97.20
8178;DHT22;4130;48.740;9.132;2023-04-24T11:56:17;12.00;97.10
8178;DHT22;4130;48.740;9.132;2023-04-24T11:58:45;12.20;97.50
8178;DHT22;4130;48.740;9.132;2023-04-24T12:01:13;12.40;97.50
8178;DHT22;4130;48.740;9.132;2023-04-24T12:03:39;12.70;97.10
8178;DHT22;4130;48.740;9.132;2023-04-24T12:06:10;12.90;96.40
8178;DHT22;4130;48.740;9.132;2023-04-24T12:08:38;13.00;96.20
8178;DHT22;4130;48.740;9.132;2023-04-24T12:11:06;12.70;96.30
8178;DHT22;4130;48.740;9.132;2023-04-24T12:13:34;12.60;96.50
8178;DHT22;4130;48.740;9.132;2023-04-24T12:16:02;12.40;96.90
8178;DHT22;4130;48.740;9.132;2023-04-24T12:18:29;12.10;97.20
8178;DHT22;4130;48.740;9.132;2023-04-24T12:21:14;11.90;97.50
8178;DHT22;4130;48.740;9.132;2023-04-24T12:23:44;11.80;97.60
8178;DHT22;4130;48.740;9.132;2023-04-24T12:26:11;11.80;97.50
8178;DHT22;4130;48.740;9.132;2023-04-24T12:28:39;11.90;98.00
8178;DHT22;4130;48.740;9.132;2023-04-24T12:31:06;12.20;96.90
8178;DHT22;4130;48.740;9.132;2023-04-24T12:33:34;12.20;96.40
8178;DHT22;4130;48.740;9.132;2023-04-24T12:36:01;12.30;96.30
8178;DHT22;4130;48.740;9.132;2023-04-24T12:38:29;12.10;96.10
8178;DHT22;4130;48.740;9.132;2023-04-24T12:41:04;12.50;96.20
8178;DHT22;4130;48.740;9.132;2023-04-24T12:43:31;12.60;96.10
8178;DHT22;4130;48.740;9.132;2023-04-24T12:45:58;12.70;96.50
8178;DHT22;4130;48.740;9.132;2023-04-24T12:48:25;12.70;96.40
8178;DHT22;4130;48.740;9.132;2023-04-24T12:50:52;12.60;96.30
8178;DHT22;4130;48.740;9.132;2023-04-24T12:53:19;12.30;96.80
8178;DHT22;4130;48.740;9.132;2023-04-24T12:55:46;11.90;97.20
8178;DHT22;4130;48.740;9.132;2023-04-24T12:58:19;11.40;97.10
8178;DHT22;4130;48.740;9.132;2023-04-24T13:00:46;11.20;97.80
8178;DHT22;4130;48.740;9.132;2023-04-24T13:03:14;11.10;98.20
8178;DHT22;4130;48.740;9.132;2023-04-24T13:05:42;11.00;98.80
8178;DHT22;4130;48.740;9.132;2023-04-24T13:08:08;10.90;98.80
8178;DHT22;4130;48.740;9.132;2023-04-24T13:10:35;10.90;99.30
8178;DHT22;4130;48.740;9.132;2023-04-24T13:13:02;11.30;99.80
8178;DHT22;4130;48.740;9.132;2023-04-24T13:15:31;10.70;99.90
8178;DHT22;4130;48.740;9.132;2023-04-24T13:17:57;10.70;99.90
8178;DHT22;4130;48.740;9.132;2023-04-24T13:20:24;10.60;99.90
8178;DHT22;4130;48.740;9.132;2023-04-24T13:22:51;10.80;99.90
8178;DHT22;4130;48.740;9.132;2023-04-24T13:25:18;11.10;99.90
8178;DHT22;4130;48.740;9.132;2023-04-24T13:27:46;11.60;99.90
8178;DHT22;4130;48.740;9.132;2023-04-24T13:30:13;12.30;99.90
8178;DHT22;4130;48.740;9.132;2023-04-24T13:32:41;12.70;99.90
8178;DHT22;4130;48.740;9.132;2023-04-24T13:35:08;12.70;99.90
8178;DHT22;4130;48.740;9.132;2023-04-24T13:37:35;12.30;99.90
8178;DHT22;4130;48.740;9.132;2023-04-24T13:40:02;11.90;99.90
8178;DHT22;4130;48.740;9.132;2023-04-24T13:42:31;11.60;99.90
8178;DHT22;4130;48.740;9.132;2023-04-24T13:44:58;11.30;99.90
8178;DHT22;4130;48.740;9.132;2023-04-24T13:47:25;11.00;99.90
8178;DHT22;4130;48.740;9.132;2023-04-24T13:49:53;10.70;99.90
8178;DHT22;4130;48.740;9.132;2023-04-24T13:52:20;10.20;99.90
8178;DHT22;4130;48.740;9.132;2023-04-24T13:54:47;9.80;99.90
8178;DHT22;4130;48.740;9.132;2023-04-24T13:57:14;9.40;99.90
8178;DHT22;4130;48.740;9.132;2023-04-24T13:59:41;9.20;99.90
8178;DHT22;4130;48.740;9.132;2023-04-24T14:02:08;9.40;99.90
8178;DHT22;4130;48.740;9.132;2023-04-24T14:04:35;9.60;99.90
8178;DHT22;4130;48.740;9.132;2023-04-24T14:07:03;9.80;99.90
8178;DHT22;4130;48.740;9.132;2023-04-24T14:09:29;10.10;99.90
8178;DHT22;4130;48.740;9.132;2023-04-24T14:11:56;10.20;99.90
8178;DHT22;4130;48.740;9.132;2023-04-24T14:14:23;10.10;99.90
8178;DHT22;4130;48.740;9.132;2023-04-24T14:16:50;9.90;99.90
8178;DHT22;4130;48.740;9.132;2023-04-24T14:19:17;9.70;99.90
8178;DHT22;4130;48.740;9.132;2023-04-24T14:21:44;9.50;99.90
8178;DHT22;4130;48.740;9.132;2023-04-24T14:24:12;9.30;99.90
8178;DHT22;4130;48.740;9.132;2023-04-24T14:26:38;9.00;99.90
8178;DHT22;4130;48.740;9.132;2023-04-24T14:29:06;8.80;99.90
8178;DHT22;4130;48.740;9.132;2023-04-24T14:31:33;8.60;99.90
8178;DHT22;4130;48.740;9.132;2023-04-24T14:34:00;8.50;99.90
8178;DHT22;4130;48.740;9.132;2023-04-24T14:36:26;8.80;99.90
8178;DHT22;4130;48.740;9.132;2023-04-24T14:38:53;9.00;99.90
8178;DHT22;4130;48.740;9.132;2023-04-24T14:41:21;9.20;99.90
8178;DHT22;4130;48.740;9.132;2023-04-24T14:43:48;9.40;99.90
8178;DHT22;4130;48.740;9.132;2023-04-24T14:46:15;9.50;99.90
8178;DHT22;4130;48.740;9.132;2023-04-24T14:48:41;9.50;99.90
8178;DHT22;4130;48.740;9.132;2023-04-24T14:51:08;9.60;99.90
8178;DHT22;4130;48.740;9.132;2023-04-24T14:53:35;9.70;99.90
8178;DHT22;4130;48.740;9.132;2023-04-24T14:56:02;9.80;99.90
8178;DHT22;4130;48.740;9.132;2023-04-24T14:58:30;10.10;99.90
8178;DHT22;4130;48.740;9.132;2023-04-24T15:00:57;10.70;99.90
8178;DHT22;4130;48.740;9.132;2023-04-24T15:03:24;11.00;99.90
8178;DHT22;4130;48.740;9.132;2023-04-24T15:05:52;11.10;99.90
8178;DHT22;4130;48.740;9.132;2023-04-24T15:08:18;10.90;99.90
8178;DHT22;4130;48.740;9.132;2023-04-24T15:10:45;10.70;99.90
8178;DHT22;4130;48.740;9.132;2023-04-24T15:13:12;10.70;99.90
8178;DHT22;4130;48.740;9.132;2023-04-24T15:15:45;10.70;99.90
8178;DHT22;4130;48.740;9.132;2023-04-24T15:18:24;10.70;99.90
8178;DHT22;4130;48.740;9.132;2023-04-24T15:20:53;10.80;99.90
8178;DHT22;4130;48.740;9.132;2023-04-24T15:23:20;10.70;99.90
8178;DHT22;4130;48.740;9.132;2023-04-24T15:25:47;10.60;99.90
8178;DHT22;4130;48.740;9.132;2023-04-24T15:28:14;10.50;99.90
8178;DHT22;4130;48.740;9.132;2023-04-24T15:30:41;10.50;99.90
8178;DHT22;4130;48.740;9.132;2023-04-24T15:33:09;10.40;99.90
8178;DHT22;4130;48.740;9.132;2023-04-24T15:35:36;10.30;99.90
8178;DHT22;4130;48.740;9.132;2023-04-24T15:38:03;10.30;99.90
8178;DHT22;4130;48.740;9.132;2023-04-24T15:40:31;10.20;99.90
8178;DHT22;4130;48.740;9.132;2023-04-24T15:42:58;9.80;99.90
8178;DHT22;4130;48.740;9.132;2023-04-24T15:45:25;9.50;99.90
8178;DHT22;4130;48.740;9.132;2023-04-24T15:47:52;9.30;99.90
8178;DHT22;4130;48.740;9.132;2023-04-24T15:50:20;9.20;99.90
8178;DHT22;4130;48.740;9.132;2023-04-24T15:52:48;9.20;99.90
8178;DHT22;4130;48.740;9.132;2023-04-24T15:55:15;9.20;99.90
8178;DHT22;4130;48.740;9.132;2023-04-24T15:57:42;9.20;99.90
8178;DHT22;4130;48.740;9.132;2023-04-24T16:00:10;9.30;99.90
8178;DHT22;4130;48.740;9.132;2023-04-24T16:02:37;9.30;99.90
8178;DHT22;4130;48.740;9.132;2023-04-24T16:05:04;9.40;99.90
8178;DHT22;4130;48.740;9.132;2023-04-24T16:07:33;9.60;99.90
8178;DHT22;4130;48.740;9.132;2023-04-24T16:10:00;9.60;99.90
8178;DHT22;4130;48.740;9.132;2023-04-24T16:12:27;9.40;99.90